sensor_id;sensor_type;location;lat;lon;timestamp;P1;durP1;ratioP1;P2;durP2;ratioP2
84820;SDS011;75463;50.988;11.332;2024-03-22T00:01:48;12.57;;;6.50;;
84820;SDS011;75463;50.988;11.332;2024-03-22T00:04:13;12.05;;;7.05;;
84820;SDS011;75463;50.988;11.332;2024-03-22T00:06:40;10.82;;;7.28;;
84820;SDS011;75463;50.988;11.332;2024-03-22T00:09:10;11.63;;;7.00;;
84820;SDS011;75463;50.988;11.332;2024-03-22T00:11:36;9.23;;;6.45;;
84820;SDS011;75463;50.988;11.332;2024-03-22T00:14:02;12.02;;;7.18;;
84820;SDS011;75463;50.988;11.332;2024-03-22T00:16:27;11.75;;;7.50;;
84820;SDS011;75463;50.988;11.332;2024-03-22T00:18:53;11.30;;;7.30;;
84820;SDS011;75463;50.988;11.332;2024-03-22T00:21:18;13.05;;;7.38;;
84820;SDS011;75463;50.988;11.332;2024-03-22T00:23:44;11.40;;;6.95;;
84820;SDS011;75463;50.988;11.332;2024-03-22T00:26:10;15.05;;;8.70;;
84820;SDS011;75463;50.988;11.332;2024-03-22T00:28:36;11.68;;;7.78;;
84820;SDS011;75463;50.988;11.332;2024-03-22T00:31:01;15.50;;;7.97;;
84820;SDS011;75463;50.988;11.332;2024-03-22T00:33:27;12.93;;;8.23;;
84820;SDS011;75463;50.988;11.332;2024-03-22T00:35:52;11.20;;;7.05;;
84820;SDS011;75463;50.988;11.332;2024-03-22T00:38:17;13.32;;;9.07;;
84820;SDS011;75463;50.988;11.332;2024-03-22T00:40:43;14.20;;;9.25;;
84820;SDS011;75463;50.988;11.332;2024-03-22T00:43:08;11.95;;;8.02;;
84820;SDS011;75463;50.988;11.332;2024-03-22T00:45:34;20.83;;;9.43;;
84820;SDS011;75463;50.988;11.332;2024-03-22T00:47:59;13.77;;;8.60;;
84820;SDS011;75463;50.988;11.332;2024-03-22T00:50:24;14.20;;;8.98;;
84820;SDS011;75463;50.988;11.332;2024-03-22T00:52:50;12.52;;;7.45;;
84820;SDS011;75463;50.988;11.332;2024-03-22T00:55:17;12.30;;;7.75;;
84820;SDS011;75463;50.988;11.332;2024-03-22T00:57:42;14.52;;;7.75;;
84820;SDS011;75463;50.988;11.332;2024-03-22T01:00:08;12.35;;;8.00;;
84820;SDS011;75463;50.988;11.332;2024-03-22T01:02:34;13.45;;;8.25;;
84820;SDS011;75463;50.988;11.332;2024-03-22T01:04:59;11.80;;;6.90;;
84820;SDS011;75463;50.988;11.332;2024-03-22T01:07:25;12.45;;;7.10;;
84820;SDS011;75463;50.988;11.332;2024-03-22T01:09:50;10.57;;;6.70;;
84820;SDS011;75463;50.988;11.332;2024-03-22T01:12:15;11.47;;;7.00;;
84820;SDS011;75463;50.988;11.332;2024-03-22T01:14:41;9.80;;;6.57;;
84820;SDS011;75463;50.988;11.332;2024-03-22T01:17:06;13.50;;;6.78;;
84820;SDS011;75463;50.988;11.332;2024-03-22T01:19:31;10.68;;;7.00;;
84820;SDS011;75463;50.988;11.332;2024-03-22T01:21:56;9.67;;;7.50;;
84820;SDS011;75463;50.988;11.332;2024-03-22T01:24:22;9.75;;;5.80;;
84820;SDS011;75463;50.988;11.332;2024-03-22T01:26:47;10.05;;;6.15;;
84820;SDS011;75463;50.988;11.332;2024-03-22T01:29:13;11.15;;;6.65;;
84820;SDS011;75463;50.988;11.332;2024-03-22T01:31:39;9.70;;;6.13;;
84820;SDS011;75463;50.988;11.332;2024-03-22T01:34:04;10.05;;;7.55;;
84820;SDS011;75463;50.988;11.332;2024-03-22T01:36:30;10.65;;;7.07;;
84820;SDS011;75463;50.988;11.332;2024-03-22T01:38:55;12.60;;;7.30;;
84820;SDS011;75463;50.988;11.332;2024-03-22T01:41:20;9.23;;;5.60;;
84820;SDS011;75463;50.988;11.332;2024-03-22T01:43:46;9.18;;;5.97;;
84820;SDS011;75463;50.988;11.332;2024-03-22T01:46:11;10.55;;;6.18;;
84820;SDS011;75463;50.988;11.332;2024-03-22T01:48:36;11.38;;;7.05;;
84820;SDS011;75463;50.988;11.332;2024-03-22T01:51:02;9.30;;;6.38;;
84820;SDS011;75463;50.988;11.332;2024-03-22T01:53:29;7.75;;;5.88;;
84820;SDS011;75463;50.988;11.332;2024-03-22T01:55:55;10.40;;;6.43;;
84820;SDS011;75463;50.988;11.332;2024-03-22T01:58:20;9.95;;;6.13;;
84820;SDS011;75463;50.988;11.332;2024-03-22T02:00:46;10.00;;;6.20;;
84820;SDS011;75463;50.988;11.332;2024-03-22T02:03:12;10.70;;;6.30;;
84820;SDS011;75463;50.988;11.332;2024-03-22T02:05:38;15.45;;;6.55;;
84820;SDS011;75463;50.988;11.332;2024-03-22T02:08:03;11.30;;;6.45;;
84820;SDS011;75463;50.988;11.332;2024-03-22T02:10:29;11.65;;;7.55;;
84820;SDS011;75463;50.988;11.332;2024-03-22T02:12:54;11.45;;;6.88;;
84820;SDS011;75463;50.988;11.332;2024-03-22T02:15:19;8.27;;;6.68;;
84820;SDS011;75463;50.988;11.332;2024-03-22T02:17:45;8.40;;;5.70;;
84820;SDS011;75463;50.988;11.332;2024-03-22T02:20:10;11.30;;;6.20;;
84820;SDS011;75463;50.988;11.332;2024-03-22T02:22:36;10.40;;;6.00;;
84820;SDS011;75463;50.988;11.332;2024-03-22T02:25:02;9.93;;;6.18;;
84820;SDS011;75463;50.988;11.332;2024-03-22T02:27:28;11.98;;;6.78;;
84820;SDS011;75463;50.988;11.332;2024-03-22T02:29:53;12.93;;;6.68;;
84820;SDS011;75463;50.988;11.332;2024-03-22T02:32:18;8.63;;;5.95;;
84820;SDS011;75463;50.988;11.332;2024-03-22T02:34:44;11.82;;;7.80;;
84820;SDS011;75463;50.988;11.332;2024-03-22T02:37:09;9.63;;;6.07;;
84820;SDS011;75463;50.988;11.332;2024-03-22T02:39:34;10.35;;;5.93;;
84820;SDS011;75463;50.988;11.332;2024-03-22T02:42:00;9.80;;;6.53;;
84820;SDS011;75463;50.988;11.332;2024-03-22T02:44:25;12.55;;;7.80;;
84820;SDS011;75463;50.988;11.332;2024-03-22T02:46:50;12.02;;;8.35;;
84820;SDS011;75463;50.988;11.332;2024-03-22T02:49:16;11.20;;;7.15;;
84820;SDS011;75463;50.988;11.332;2024-03-22T02:51:41;11.75;;;7.10;;
84820;SDS011;75463;50.988;11.332;2024-03-22T02:54:06;11.02;;;7.10;;
84820;SDS011;75463;50.988;11.332;2024-03-22T02:56:32;11.43;;;6.85;;
84820;SDS011;75463;50.988;11.332;2024-03-22T02:58:57;12.25;;;7.50;;
84820;SDS011;75463;50.988;11.332;2024-03-22T03:01:22;13.35;;;6.68;;
84820;SDS011;75463;50.988;11.332;2024-03-22T03:03:48;14.38;;;7.93;;
84820;SDS011;75463;50.988;11.332;2024-03-22T03:06:13;10.98;;;8.15;;
84820;SDS011;75463;50.988;11.332;2024-03-22T03:08:39;11.00;;;7.45;;
84820;SDS011;75463;50.988;11.332;2024-03-22T03:11:04;13.60;;;6.65;;
84820;SDS011;75463;50.988;11.332;2024-03-22T03:13:30;13.80;;;7.93;;
84820;SDS011;75463;50.988;11.332;2024-03-22T03:15:55;11.70;;;6.68;;
84820;SDS011;75463;50.988;11.332;2024-03-22T03:18:21;10.93;;;6.35;;
84820;SDS011;75463;50.988;11.332;2024-03-22T03:20:46;11.55;;;6.40;;
84820;SDS011;75463;50.988;11.332;2024-03-22T03:23:11;8.98;;;6.53;;
84820;SDS011;75463;50.988;11.332;2024-03-22T03:25:37;10.37;;;7.00;;
84820;SDS011;75463;50.988;11.332;2024-03-22T03:28:02;12.05;;;6.85;;
84820;SDS011;75463;50.988;11.332;2024-03-22T03:30:27;9.80;;;6.47;;
84820;SDS011;75463;50.988;11.332;2024-03-22T03:32:56;13.27;;;6.67;;
84820;SDS011;75463;50.988;11.332;2024-03-22T03:35:22;13.20;;;7.05;;
84820;SDS011;75463;50.988;11.332;2024-03-22T03:37:47;12.32;;;7.18;;
84820;SDS011;75463;50.988;11.332;2024-03-22T03:40:12;10.35;;;6.72;;
84820;SDS011;75463;50.988;11.332;2024-03-22T03:42:38;11.77;;;7.15;;
84820;SDS011;75463;50.988;11.332;2024-03-22T03:45:03;9.27;;;6.65;;
84820;SDS011;75463;50.988;11.332;2024-03-22T03:47:28;10.52;;;6.85;;
84820;SDS011;75463;50.988;11.332;2024-03-22T03:49:54;13.88;;;8.32;;
84820;SDS011;75463;50.988;11.332;2024-03-22T03:52:19;13.80;;;7.55;;
84820;SDS011;75463;50.988;11.332;2024-03-22T03:54:44;10.52;;;6.20;;
84820;SDS011;75463;50.988;11.332;2024-03-22T03:57:10;12.52;;;6.55;;
84820;SDS011;75463;50.988;11.332;2024-03-22T03:59:35;9.55;;;6.85;;
84820;SDS011;75463;50.988;11.332;2024-03-22T04:02:00;12.88;;;6.00;;
84820;SDS011;75463;50.988;11.332;2024-03-22T04:04:26;10.95;;;6.68;;
84820;SDS011;75463;50.988;11.332;2024-03-22T04:06:51;11.15;;;6.57;;
84820;SDS011;75463;50.988;11.332;2024-03-22T04:09:16;9.90;;;6.10;;
84820;SDS011;75463;50.988;11.332;2024-03-22T04:11:42;10.05;;;5.88;;
84820;SDS011;75463;50.988;11.332;2024-03-22T04:14:07;10.95;;;6.25;;
84820;SDS011;75463;50.988;11.332;2024-03-22T04:16:32;12.88;;;7.82;;
84820;SDS011;75463;50.988;11.332;2024-03-22T04:18:58;11.52;;;6.25;;
84820;SDS011;75463;50.988;11.332;2024-03-22T04:21:23;11.38;;;6.68;;
84820;SDS011;75463;50.988;11.332;2024-03-22T04:23:48;15.50;;;8.18;;
84820;SDS011;75463;50.988;11.332;2024-03-22T04:26:14;13.63;;;8.50;;
84820;SDS011;75463;50.988;11.332;2024-03-22T04:28:40;13.55;;;8.38;;
84820;SDS011;75463;50.988;11.332;2024-03-22T04:31:07;14.48;;;7.53;;
84820;SDS011;75463;50.988;11.332;2024-03-22T04:33:34;13.05;;;7.95;;
84820;SDS011;75463;50.988;11.332;2024-03-22T04:36:00;16.17;;;8.07;;
84820;SDS011;75463;50.988;11.332;2024-03-22T04:38:26;13.68;;;7.80;;
84820;SDS011;75463;50.988;11.332;2024-03-22T04:40:51;15.57;;;8.30;;
84820;SDS011;75463;50.988;11.332;2024-03-22T04:43:17;14.20;;;7.93;;
84820;SDS011;75463;50.988;11.332;2024-03-22T04:45:43;16.05;;;9.55;;
84820;SDS011;75463;50.988;11.332;2024-03-22T04:48:09;14.07;;;7.93;;
84820;SDS011;75463;50.988;11.332;2024-03-22T04:50:34;13.23;;;6.60;;
84820;SDS011;75463;50.988;11.332;2024-03-22T04:53:00;13.48;;;6.93;;
84820;SDS011;75463;50.988;11.332;2024-03-22T04:55:26;13.00;;;6.85;;
84820;SDS011;75463;50.988;11.332;2024-03-22T04:57:51;11.93;;;6.55;;
84820;SDS011;75463;50.988;11.332;2024-03-22T05:00:17;12.05;;;7.57;;
84820;SDS011;75463;50.988;11.332;2024-03-22T05:02:43;11.88;;;7.20;;
84820;SDS011;75463;50.988;11.332;2024-03-22T05:05:08;11.32;;;6.55;;
84820;SDS011;75463;50.988;11.332;2024-03-22T05:07:34;10.57;;;6.65;;
84820;SDS011;75463;50.988;11.332;2024-03-22T05:09:59;11.45;;;7.13;;
84820;SDS011;75463;50.988;11.332;2024-03-22T05:12:25;10.90;;;7.03;;
84820;SDS011;75463;50.988;11.332;2024-03-22T05:14:50;13.25;;;7.50;;
84820;SDS011;75463;50.988;11.332;2024-03-22T05:17:15;14.53;;;8.30;;
84820;SDS011;75463;50.988;11.332;2024-03-22T05:19:41;14.60;;;7.82;;
84820;SDS011;75463;50.988;11.332;2024-03-22T05:22:06;14.63;;;7.95;;
84820;SDS011;75463;50.988;11.332;2024-03-22T05:24:31;11.73;;;7.03;;
84820;SDS011;75463;50.988;11.332;2024-03-22T05:26:57;16.92;;;8.35;;
84820;SDS011;75463;50.988;11.332;2024-03-22T05:29:23;14.27;;;7.03;;
84820;SDS011;75463;50.988;11.332;2024-03-22T05:31:49;14.60;;;7.13;;
84820;SDS011;75463;50.988;11.332;2024-03-22T05:34:16;12.98;;;6.90;;
84820;SDS011;75463;50.988;11.332;2024-03-22T05:36:42;14.45;;;7.93;;
84820;SDS011;75463;50.988;11.332;2024-03-22T05:39:07;13.23;;;8.18;;
84820;SDS011;75463;50.988;11.332;2024-03-22T05:41:33;15.15;;;7.65;;
84820;SDS011;75463;50.988;11.332;2024-03-22T05:43:58;11.23;;;6.57;;
84820;SDS011;75463;50.988;11.332;2024-03-22T05:46:24;14.00;;;6.80;;
84820;SDS011;75463;50.988;11.332;2024-03-22T05:48:49;12.23;;;6.97;;
84820;SDS011;75463;50.988;11.332;2024-03-22T05:51:16;12.55;;;7.45;;
84820;SDS011;75463;50.988;11.332;2024-03-22T05:53:42;12.07;;;7.05;;
84820;SDS011;75463;50.988;11.332;2024-03-22T05:56:07;11.55;;;6.97;;
84820;SDS011;75463;50.988;11.332;2024-03-22T05:58:33;13.68;;;7.95;;
84820;SDS011;75463;50.988;11.332;2024-03-22T06:00:58;11.23;;;6.45;;
84820;SDS011;75463;50.988;11.332;2024-03-22T06:03:23;12.75;;;6.50;;
84820;SDS011;75463;50.988;11.332;2024-03-22T06:05:49;14.77;;;7.22;;
84820;SDS011;75463;50.988;11.332;2024-03-22T06:08:14;12.63;;;8.05;;
84820;SDS011;75463;50.988;11.332;2024-03-22T06:10:44;11.27;;;7.47;;
84820;SDS011;75463;50.988;11.332;2024-03-22T06:13:10;15.32;;;7.78;;
84820;SDS011;75463;50.988;11.332;2024-03-22T06:15:35;14.27;;;7.53;;
84820;SDS011;75463;50.988;11.332;2024-03-22T06:18:01;14.57;;;8.07;;
84820;SDS011;75463;50.988;11.332;2024-03-22T06:20:26;20.83;;;10.82;;
84820;SDS011;75463;50.988;11.332;2024-03-22T06:22:51;20.77;;;12.13;;
84820;SDS011;75463;50.988;11.332;2024-03-22T06:25:17;35.25;;;19.75;;
84820;SDS011;75463;50.988;11.332;2024-03-22T06:27:42;28.75;;;17.02;;
84820;SDS011;75463;50.988;11.332;2024-03-22T06:30:07;34.80;;;18.20;;
84820;SDS011;75463;50.988;11.332;2024-03-22T06:32:33;38.55;;;19.67;;
84820;SDS011;75463;50.988;11.332;2024-03-22T06:34:58;36.25;;;16.92;;
84820;SDS011;75463;50.988;11.332;2024-03-22T06:37:23;25.05;;;14.75;;
84820;SDS011;75463;50.988;11.332;2024-03-22T06:39:49;25.23;;;12.35;;
84820;SDS011;75463;50.988;11.332;2024-03-22T06:42:14;24.47;;;12.63;;
84820;SDS011;75463;50.988;11.332;2024-03-22T06:44:42;21.50;;;11.13;;
84820;SDS011;75463;50.988;11.332;2024-03-22T06:47:07;24.50;;;11.60;;
84820;SDS011;75463;50.988;11.332;2024-03-22T06:49:32;22.73;;;11.47;;
84820;SDS011;75463;50.988;11.332;2024-03-22T06:51:58;23.27;;;11.00;;
84820;SDS011;75463;50.988;11.332;2024-03-22T06:54:24;23.65;;;10.70;;
84820;SDS011;75463;50.988;11.332;2024-03-22T06:56:49;23.75;;;12.35;;
84820;SDS011;75463;50.988;11.332;2024-03-22T06:59:14;26.00;;;11.47;;
84820;SDS011;75463;50.988;11.332;2024-03-22T07:01:39;21.85;;;11.48;;
84820;SDS011;75463;50.988;11.332;2024-03-22T07:04:05;23.67;;;12.95;;
84820;SDS011;75463;50.988;11.332;2024-03-22T07:06:30;23.93;;;11.77;;
84820;SDS011;75463;50.988;11.332;2024-03-22T07:08:55;24.92;;;12.13;;
84820;SDS011;75463;50.988;11.332;2024-03-22T07:11:21;21.20;;;10.13;;
84820;SDS011;75463;50.988;11.332;2024-03-22T07:13:47;27.17;;;11.57;;
84820;SDS011;75463;50.988;11.332;2024-03-22T07:16:12;23.65;;;11.77;;
84820;SDS011;75463;50.988;11.332;2024-03-22T07:18:38;23.00;;;11.90;;
84820;SDS011;75463;50.988;11.332;2024-03-22T07:21:03;25.10;;;11.37;;
84820;SDS011;75463;50.988;11.332;2024-03-22T07:23:29;21.50;;;12.00;;
84820;SDS011;75463;50.988;11.332;2024-03-22T07:25:55;22.17;;;10.82;;
84820;SDS011;75463;50.988;11.332;2024-03-22T07:28:20;25.67;;;11.27;;
84820;SDS011;75463;50.988;11.332;2024-03-22T07:30:46;20.70;;;10.73;;
84820;SDS011;75463;50.988;11.332;2024-03-22T07:33:12;23.52;;;12.32;;
84820;SDS011;75463;50.988;11.332;2024-03-22T07:35:42;22.17;;;12.00;;
84820;SDS011;75463;50.988;11.332;2024-03-22T07:38:08;20.30;;;11.43;;
84820;SDS011;75463;50.988;11.332;2024-03-22T07:40:33;19.65;;;10.30;;
84820;SDS011;75463;50.988;11.332;2024-03-22T07:42:58;20.25;;;10.25;;
84820;SDS011;75463;50.988;11.332;2024-03-22T07:45:24;23.00;;;10.68;;
84820;SDS011;75463;50.988;11.332;2024-03-22T07:47:50;19.67;;;10.13;;
84820;SDS011;75463;50.988;11.332;2024-03-22T07:50:15;20.70;;;10.93;;
84820;SDS011;75463;50.988;11.332;2024-03-22T07:52:40;21.95;;;11.48;;
84820;SDS011;75463;50.988;11.332;2024-03-22T07:55:06;19.77;;;9.90;;
84820;SDS011;75463;50.988;11.332;2024-03-22T07:57:31;20.60;;;11.13;;
84820;SDS011;75463;50.988;11.332;2024-03-22T07:59:57;19.92;;;11.25;;
84820;SDS011;75463;50.988;11.332;2024-03-22T08:02:23;20.33;;;11.35;;
84820;SDS011;75463;50.988;11.332;2024-03-22T08:04:48;19.70;;;10.93;;
84820;SDS011;75463;50.988;11.332;2024-03-22T08:07:14;15.23;;;8.27;;
84820;SDS011;75463;50.988;11.332;2024-03-22T08:09:39;16.25;;;9.32;;
84820;SDS011;75463;50.988;11.332;2024-03-22T08:12:05;12.80;;;7.45;;
84820;SDS011;75463;50.988;11.332;2024-03-22T08:14:31;16.70;;;9.20;;
84820;SDS011;75463;50.988;11.332;2024-03-22T08:16:56;13.25;;;8.18;;
84820;SDS011;75463;50.988;11.332;2024-03-22T08:19:22;10.90;;;6.25;;
84820;SDS011;75463;50.988;11.332;2024-03-22T08:21:47;12.05;;;6.78;;
84820;SDS011;75463;50.988;11.332;2024-03-22T08:24:13;16.55;;;6.72;;
84820;SDS011;75463;50.988;11.332;2024-03-22T08:26:38;13.07;;;6.25;;
84820;SDS011;75463;50.988;11.332;2024-03-22T08:29:03;12.30;;;6.43;;
84820;SDS011;75463;50.988;11.332;2024-03-22T08:31:29;10.43;;;5.30;;
84820;SDS011;75463;50.988;11.332;2024-03-22T08:33:54;11.60;;;6.37;;
84820;SDS011;75463;50.988;11.332;2024-03-22T08:36:21;9.93;;;5.07;;
84820;SDS011;75463;50.988;11.332;2024-03-22T08:38:47;11.13;;;5.78;;
84820;SDS011;75463;50.988;11.332;2024-03-22T08:41:12;11.00;;;5.20;;
84820;SDS011;75463;50.988;11.332;2024-03-22T08:43:37;7.33;;;4.43;;
84820;SDS011;75463;50.988;11.332;2024-03-22T08:46:03;10.93;;;5.67;;
84820;SDS011;75463;50.988;11.332;2024-03-22T08:48:28;10.02;;;5.68;;
84820;SDS011;75463;50.988;11.332;2024-03-22T08:50:54;11.27;;;5.28;;
84820;SDS011;75463;50.988;11.332;2024-03-22T08:53:19;9.05;;;5.50;;
84820;SDS011;75463;50.988;11.332;2024-03-22T08:55:48;10.57;;;6.43;;
84820;SDS011;75463;50.988;11.332;2024-03-22T08:58:14;10.38;;;5.55;;
84820;SDS011;75463;50.988;11.332;2024-03-22T09:00:40;10.63;;;5.97;;
84820;SDS011;75463;50.988;11.332;2024-03-22T09:03:06;13.15;;;6.65;;
84820;SDS011;75463;50.988;11.332;2024-03-22T09:05:32;11.25;;;6.15;;
84820;SDS011;75463;50.988;11.332;2024-03-22T09:07:58;11.88;;;5.72;;
84820;SDS011;75463;50.988;11.332;2024-03-22T09:10:24;11.93;;;5.72;;
84820;SDS011;75463;50.988;11.332;2024-03-22T09:12:49;11.45;;;5.50;;
84820;SDS011;75463;50.988;11.332;2024-03-22T09:15:14;7.93;;;5.10;;
84820;SDS011;75463;50.988;11.332;2024-03-22T09:17:40;9.40;;;5.25;;
84820;SDS011;75463;50.988;11.332;2024-03-22T09:20:05;9.18;;;5.55;;
84820;SDS011;75463;50.988;11.332;2024-03-22T09:22:32;12.27;;;6.50;;
84820;SDS011;75463;50.988;11.332;2024-03-22T09:24:58;9.60;;;5.85;;
84820;SDS011;75463;50.988;11.332;2024-03-22T09:27:24;9.88;;;5.43;;
84820;SDS011;75463;50.988;11.332;2024-03-22T09:29:49;8.52;;;5.25;;
84820;SDS011;75463;50.988;11.332;2024-03-22T09:32:14;10.15;;;5.45;;
84820;SDS011;75463;50.988;11.332;2024-03-22T09:34:40;11.52;;;6.45;;
84820;SDS011;75463;50.988;11.332;2024-03-22T09:37:05;10.48;;;6.32;;
84820;SDS011;75463;50.988;11.332;2024-03-22T09:39:31;10.40;;;5.80;;
84820;SDS011;75463;50.988;11.332;2024-03-22T09:41:57;13.00;;;6.90;;
84820;SDS011;75463;50.988;11.332;2024-03-22T09:44:24;11.02;;;5.75;;
84820;SDS011;75463;50.988;11.332;2024-03-22T09:46:52;13.13;;;7.70;;
84820;SDS011;75463;50.988;11.332;2024-03-22T09:49:17;11.80;;;6.47;;
84820;SDS011;75463;50.988;11.332;2024-03-22T09:51:43;11.93;;;6.82;;
84820;SDS011;75463;50.988;11.332;2024-03-22T09:54:09;12.27;;;8.02;;
84820;SDS011;75463;50.988;11.332;2024-03-22T09:56:35;12.48;;;7.28;;
84820;SDS011;75463;50.988;11.332;2024-03-22T09:59:07;11.02;;;7.10;;
84820;SDS011;75463;50.988;11.332;2024-03-22T10:01:34;11.00;;;7.28;;
84820;SDS011;75463;50.988;11.332;2024-03-22T10:04:00;12.10;;;8.02;;
84820;SDS011;75463;50.988;11.332;2024-03-22T10:06:25;12.77;;;7.63;;
84820;SDS011;75463;50.988;11.332;2024-03-22T10:08:51;12.90;;;7.88;;
84820;SDS011;75463;50.988;11.332;2024-03-22T10:11:16;17.13;;;8.80;;
84820;SDS011;75463;50.988;11.332;2024-03-22T10:13:43;15.52;;;8.82;;
84820;SDS011;75463;50.988;11.332;2024-03-22T10:16:09;15.23;;;8.95;;
84820;SDS011;75463;50.988;11.332;2024-03-22T10:18:34;15.63;;;8.87;;
84820;SDS011;75463;50.988;11.332;2024-03-22T10:21:03;15.20;;;8.80;;
84820;SDS011;75463;50.988;11.332;2024-03-22T10:23:29;12.82;;;8.32;;
84820;SDS011;75463;50.988;11.332;2024-03-22T10:25:56;17.98;;;9.50;;
84820;SDS011;75463;50.988;11.332;2024-03-22T10:28:23;15.57;;;9.45;;
84820;SDS011;75463;50.988;11.332;2024-03-22T10:30:50;19.30;;;12.07;;
84820;SDS011;75463;50.988;11.332;2024-03-22T10:33:15;18.08;;;10.90;;
84820;SDS011;75463;50.988;11.332;2024-03-22T10:35:41;16.63;;;10.15;;
84820;SDS011;75463;50.988;11.332;2024-03-22T10:38:09;15.48;;;9.85;;
84820;SDS011;75463;50.988;11.332;2024-03-22T10:40:39;17.75;;;10.75;;
84820;SDS011;75463;50.988;11.332;2024-03-22T10:43:09;16.10;;;10.85;;
84820;SDS011;75463;50.988;11.332;2024-03-22T10:45:34;20.63;;;10.90;;
84820;SDS011;75463;50.988;11.332;2024-03-22T10:48:00;17.88;;;10.63;;
84820;SDS011;75463;50.988;11.332;2024-03-22T10:50:29;16.90;;;11.02;;
84820;SDS011;75463;50.988;11.332;2024-03-22T10:52:59;20.48;;;11.93;;
84820;SDS011;75463;50.988;11.332;2024-03-22T10:55:39;18.83;;;11.90;;
84820;SDS011;75463;50.988;11.332;2024-03-22T10:58:07;20.65;;;11.88;;
84820;SDS011;75463;50.988;11.332;2024-03-22T11:00:41;20.25;;;11.98;;
84820;SDS011;75463;50.988;11.332;2024-03-22T11:08:07;21.17;;;12.07;;
84820;SDS011;75463;50.988;11.332;2024-03-22T11:10:33;19.35;;;12.88;;
84820;SDS011;75463;50.988;11.332;2024-03-22T11:13:02;16.20;;;11.85;;
84820;SDS011;75463;50.988;11.332;2024-03-22T11:15:28;19.25;;;12.32;;
84820;SDS011;75463;50.988;11.332;2024-03-22T11:17:54;22.42;;;12.57;;
84820;SDS011;75463;50.988;11.332;2024-03-22T11:20:20;19.23;;;12.32;;
84820;SDS011;75463;50.988;11.332;2024-03-22T11:22:45;19.33;;;12.55;;
84820;SDS011;75463;50.988;11.332;2024-03-22T11:25:10;18.43;;;12.07;;
84820;SDS011;75463;50.988;11.332;2024-03-22T11:27:35;19.67;;;11.37;;
84820;SDS011;75463;50.988;11.332;2024-03-22T11:30:01;16.33;;;11.95;;
84820;SDS011;75463;50.988;11.332;2024-03-22T11:32:26;16.02;;;11.55;;
84820;SDS011;75463;50.988;11.332;2024-03-22T11:34:53;19.88;;;12.48;;
84820;SDS011;75463;50.988;11.332;2024-03-22T11:37:19;17.92;;;12.02;;
84820;SDS011;75463;50.988;11.332;2024-03-22T11:39:44;16.77;;;11.82;;
84820;SDS011;75463;50.988;11.332;2024-03-22T11:42:09;18.52;;;10.43;;
84820;SDS011;75463;50.988;11.332;2024-03-22T11:44:36;16.75;;;11.45;;
84820;SDS011;75463;50.988;11.332;2024-03-22T11:47:04;17.70;;;12.50;;
84820;SDS011;75463;50.988;11.332;2024-03-22T11:49:29;18.42;;;11.07;;
84820;SDS011;75463;50.988;11.332;2024-03-22T11:51:58;17.42;;;10.38;;
84820;SDS011;75463;50.988;11.332;2024-03-22T11:54:23;15.40;;;11.43;;
84820;SDS011;75463;50.988;11.332;2024-03-22T11:56:49;17.55;;;10.98;;
84820;SDS011;75463;50.988;11.332;2024-03-22T11:59:14;19.52;;;12.27;;
84820;SDS011;75463;50.988;11.332;2024-03-22T12:01:40;15.85;;;10.88;;
84820;SDS011;75463;50.988;11.332;2024-03-22T12:04:06;18.95;;;10.13;;
84820;SDS011;75463;50.988;11.332;2024-03-22T12:06:33;18.23;;;10.10;;
84820;SDS011;75463;50.988;11.332;2024-03-22T12:08:59;17.02;;;10.30;;
84820;SDS011;75463;50.988;11.332;2024-03-22T12:11:25;15.75;;;10.52;;
84820;SDS011;75463;50.988;11.332;2024-03-22T12:13:50;14.37;;;10.10;;
84820;SDS011;75463;50.988;11.332;2024-03-22T12:16:15;13.37;;;8.87;;
84820;SDS011;75463;50.988;11.332;2024-03-22T12:18:41;15.68;;;10.23;;
84820;SDS011;75463;50.988;11.332;2024-03-22T12:21:06;17.55;;;10.57;;
84820;SDS011;75463;50.988;11.332;2024-03-22T12:23:32;17.48;;;9.70;;
84820;SDS011;75463;50.988;11.332;2024-03-22T12:25:57;12.60;;;9.37;;
84820;SDS011;75463;50.988;11.332;2024-03-22T12:28:22;15.98;;;10.07;;
84820;SDS011;75463;50.988;11.332;2024-03-22T12:30:49;12.63;;;9.05;;
84820;SDS011;75463;50.988;11.332;2024-03-22T12:33:14;14.93;;;9.98;;
84820;SDS011;75463;50.988;11.332;2024-03-22T12:35:40;14.20;;;9.27;;
84820;SDS011;75463;50.988;11.332;2024-03-22T12:38:06;12.70;;;8.68;;
84820;SDS011;75463;50.988;11.332;2024-03-22T12:40:33;16.52;;;8.57;;
84820;SDS011;75463;50.988;11.332;2024-03-22T12:42:59;13.10;;;8.43;;
84820;SDS011;75463;50.988;11.332;2024-03-22T12:45:24;13.05;;;8.50;;
84820;SDS011;75463;50.988;11.332;2024-03-22T12:47:50;16.10;;;8.85;;
84820;SDS011;75463;50.988;11.332;2024-03-22T12:50:15;11.80;;;7.95;;
84820;SDS011;75463;50.988;11.332;2024-03-22T12:52:40;12.98;;;8.75;;
84820;SDS011;75463;50.988;11.332;2024-03-22T12:55:06;14.20;;;8.52;;
84820;SDS011;75463;50.988;11.332;2024-03-22T12:57:32;12.43;;;8.48;;
84820;SDS011;75463;50.988;11.332;2024-03-22T12:59:57;13.57;;;8.43;;
84820;SDS011;75463;50.988;11.332;2024-03-22T13:02:23;11.82;;;8.07;;
84820;SDS011;75463;50.988;11.332;2024-03-22T13:04:51;11.48;;;8.15;;
84820;SDS011;75463;50.988;11.332;2024-03-22T13:07:16;15.88;;;7.10;;
84820;SDS011;75463;50.988;11.332;2024-03-22T13:09:42;11.05;;;8.05;;
84820;SDS011;75463;50.988;11.332;2024-03-22T13:12:07;12.77;;;8.23;;
84820;SDS011;75463;50.988;11.332;2024-03-22T13:14:32;10.10;;;7.43;;
84820;SDS011;75463;50.988;11.332;2024-03-22T13:16:58;12.00;;;7.43;;
84820;SDS011;75463;50.988;11.332;2024-03-22T13:19:23;11.10;;;7.68;;
84820;SDS011;75463;50.988;11.332;2024-03-22T13:21:48;13.48;;;8.02;;
84820;SDS011;75463;50.988;11.332;2024-03-22T13:24:15;9.82;;;7.25;;
84820;SDS011;75463;50.988;11.332;2024-03-22T13:26:41;12.63;;;8.07;;
84820;SDS011;75463;50.988;11.332;2024-03-22T13:29:06;10.43;;;7.47;;
84820;SDS011;75463;50.988;11.332;2024-03-22T13:31:32;11.60;;;7.57;;
84820;SDS011;75463;50.988;11.332;2024-03-22T13:33:57;10.30;;;7.00;;
84820;SDS011;75463;50.988;11.332;2024-03-22T13:36:23;13.05;;;7.55;;
84820;SDS011;75463;50.988;11.332;2024-03-22T13:38:50;13.50;;;8.80;;
84820;SDS011;75463;50.988;11.332;2024-03-22T13:41:16;13.02;;;8.50;;
84820;SDS011;75463;50.988;11.332;2024-03-22T13:43:41;11.83;;;8.03;;
84820;SDS011;75463;50.988;11.332;2024-03-22T13:46:09;12.70;;;7.75;;
84820;SDS011;75463;50.988;11.332;2024-03-22T13:48:37;14.38;;;8.30;;
84820;SDS011;75463;50.988;11.332;2024-03-22T13:51:02;14.57;;;8.60;;
84820;SDS011;75463;50.988;11.332;2024-03-22T13:53:28;15.90;;;8.10;;
84820;SDS011;75463;50.988;11.332;2024-03-22T13:55:53;14.52;;;8.55;;
84820;SDS011;75463;50.988;11.332;2024-03-22T13:58:19;13.63;;;9.38;;
84820;SDS011;75463;50.988;11.332;2024-03-22T14:00:45;16.23;;;9.43;;
84820;SDS011;75463;50.988;11.332;2024-03-22T14:03:10;15.13;;;9.25;;
84820;SDS011;75463;50.988;11.332;2024-03-22T14:05:36;9.88;;;8.00;;
84820;SDS011;75463;50.988;11.332;2024-03-22T14:08:01;11.40;;;8.32;;
84820;SDS011;75463;50.988;11.332;2024-03-22T14:10:28;13.43;;;7.78;;
84820;SDS011;75463;50.988;11.332;2024-03-22T14:12:56;12.40;;;9.52;;
84820;SDS011;75463;50.988;11.332;2024-03-22T14:15:22;13.23;;;8.73;;